createdAt,value
2019-03-28T00:00:58.461Z,8.53
2019-03-28T00:03:27.153Z,8.07
2019-03-28T00:05:55.706Z,7.33
2019-03-28T00:08:24.136Z,7.93
2019-03-28T00:10:52.587Z,8.03
2019-03-28T00:13:21.026Z,9.07
2019-03-28T00:15:49.439Z,8.13
2019-03-28T00:18:17.897Z,8.70
2019-03-28T00:20:46.326Z,8.93
2019-03-28T00:23:22.247Z,9.63
2019-03-28T00:25:50.668Z,9.20
2019-03-28T00:28:19.106Z,8.03
2019-03-28T00:30:47.539Z,8.57
2019-03-28T00:33:15.985Z,8.17
2019-03-28T00:35:44.431Z,9.07
2019-03-28T00:38:12.867Z,7.57
2019-03-28T00:40:41.313Z,8.07
2019-03-28T00:43:09.848Z,7.47
2019-03-28T00:45:38.294Z,8.60
2019-03-28T00:48:06.765Z,8.93
2019-03-28T00:50:35.188Z,8.97
2019-03-28T00:53:03.647Z,8.73
2019-03-28T00:55:32.117Z,9.23
2019-03-28T00:58:00.570Z,8.67
2019-03-28T01:00:29.115Z,8.53
2019-03-28T01:02:57.550Z,9.43
2019-03-28T01:05:25.993Z,8.17
2019-03-28T01:07:54.445Z,8.77
2019-03-28T01:10:22.982Z,8.13
2019-03-28T01:12:51.393Z,8.80
2019-03-28T01:15:19.859Z,8.00
2019-03-28T01:17:48.288Z,8.40
2019-03-28T01:20:16.722Z,8.80
2019-03-28T01:22:45.138Z,8.97
2019-03-28T01:25:13.651Z,8.83
2019-03-28T01:27:42.093Z,9.07
2019-03-28T01:30:10.863Z,8.83
2019-03-28T01:32:39.332Z,9.73
2019-03-28T01:35:07.946Z,9.27
2019-03-28T01:37:36.461Z,9.07
2019-03-28T01:40:08.101Z,9.77
2019-03-28T01:42:36.547Z,9.40
2019-03-28T01:45:06.341Z,9.50
2019-03-28T01:47:34.770Z,9.20
2019-03-28T01:50:04.265Z,9.97
2019-03-28T01:52:32.708Z,9.10
2019-03-28T01:55:01.149Z,9.37
2019-03-28T01:57:29.574Z,9.43
2019-03-28T01:59:58.028Z,9.70
2019-03-28T02:02:26.475Z,10.53
2019-03-28T02:04:54.913Z,9.70
2019-03-28T02:07:23.334Z,9.47
2019-03-28T02:13:19.926Z,9.00
2019-03-28T02:15:48.376Z,10.40
2019-03-28T02:18:16.817Z,10.57
2019-03-28T02:20:45.290Z,10.53
2019-03-28T02:23:14.286Z,10.00
2019-03-28T02:25:43.430Z,9.57
2019-03-28T02:28:11.964Z,9.43
2019-03-28T02:30:40.412Z,10.07
2019-03-28T02:33:08.842Z,9.93
2019-03-28T02:35:37.284Z,10.00
2019-03-28T02:38:05.719Z,9.70
2019-03-28T02:40:34.166Z,10.17
2019-03-28T02:43:02.635Z,9.77
2019-03-28T02:45:31.065Z,9.57
2019-03-28T02:47:59.492Z,9.93
2019-03-28T02:50:27.968Z,9.40
2019-03-28T02:52:56.401Z,11.20
2019-03-28T02:55:24.838Z,10.13
2019-03-28T02:57:53.280Z,10.17
2019-03-28T03:00:21.739Z,10.40
2019-03-28T03:02:50.210Z,10.87
2019-03-28T03:05:18.661Z,9.80
2019-03-28T03:07:47.094Z,9.23
2019-03-28T03:10:15.697Z,10.73
2019-03-28T03:12:44.210Z,9.67
2019-03-28T03:15:12.795Z,9.87
2019-03-28T03:17:41.629Z,10.83
2019-03-28T03:20:10.594Z,10.00
2019-03-28T03:22:39.120Z,10.20
2019-03-28T03:25:07.905Z,9.87
2019-03-28T03:27:36.607Z,9.37
2019-03-28T03:30:08.488Z,9.77
2019-03-28T03:32:37.128Z,10.00
2019-03-28T03:35:05.774Z,10.07
2019-03-28T03:37:34.296Z,9.63
2019-03-28T03:40:03.203Z,9.80
2019-03-28T03:42:31.643Z,9.60
2019-03-28T03:45:00.554Z,9.57
2019-03-28T03:47:29.126Z,10.40
2019-03-28T03:49:57.625Z,11.10
2019-03-28T03:52:26.074Z,10.70
2019-03-28T03:54:54.515Z,9.97
2019-03-28T03:57:22.988Z,10.57
2019-03-28T03:59:51.401Z,9.80
2019-03-28T04:02:19.947Z,10.23
2019-03-28T04:04:48.386Z,10.87
2019-03-28T04:07:16.939Z,11.70
2019-03-28T04:09:45.399Z,11.30
2019-03-28T04:12:13.851Z,11.30
2019-03-28T04:14:42.315Z,10.83
2019-03-28T04:17:10.788Z,11.83
2019-03-28T04:19:39.296Z,10.87
2019-03-28T04:22:07.882Z,11.70
2019-03-28T04:24:36.319Z,11.40
2019-03-28T04:27:04.788Z,12.17
2019-03-28T04:29:33.254Z,12.57
2019-03-28T04:32:01.717Z,12.67
2019-03-28T04:34:30.168Z,11.73
2019-03-28T04:36:58.697Z,12.43
2019-03-28T04:39:27.196Z,11.40
2019-03-28T04:41:55.652Z,12.07
2019-03-28T04:44:24.107Z,11.33
2019-03-28T04:46:52.627Z,12.27
2019-03-28T04:49:21.062Z,13.57
2019-03-28T04:51:49.905Z,11.77
2019-03-28T04:54:18.432Z,12.30
2019-03-28T04:56:46.992Z,11.60
2019-03-28T04:59:15.525Z,11.63
2019-03-28T05:01:44.045Z,11.97
2019-03-28T05:04:12.507Z,12.20
2019-03-28T05:06:40.976Z,12.07
2019-03-28T05:09:09.451Z,11.40
2019-03-28T05:11:37.889Z,13.13
2019-03-28T05:14:06.336Z,13.47
2019-03-28T05:16:34.780Z,12.87
2019-03-28T05:19:03.226Z,13.10
2019-03-28T05:21:31.658Z,12.50
2019-03-28T05:24:00.133Z,13.33
2019-03-28T05:26:28.824Z,12.17
2019-03-28T05:28:58.862Z,13.53
2019-03-28T05:31:27.466Z,13.07
2019-03-28T05:33:56.216Z,13.93
2019-03-28T05:36:24.649Z,13.40
2019-03-28T05:38:53.113Z,13.07
2019-03-28T05:41:21.582Z,13.07
2019-03-28T05:43:50.042Z,14.43
2019-03-28T05:46:18.501Z,14.10
2019-03-28T05:48:47.563Z,12.97
2019-03-28T05:51:16.001Z,14.50
2019-03-28T05:53:44.457Z,20.03
2019-03-28T05:56:12.926Z,18.40
2019-03-28T05:58:41.378Z,17.23
2019-03-28T06:01:09.841Z,14.40
2019-03-28T06:03:38.381Z,14.10
2019-03-28T06:06:06.845Z,14.30
2019-03-28T06:08:35.316Z,14.83
2019-03-28T06:11:03.827Z,13.83
2019-03-28T06:13:32.571Z,13.40
2019-03-28T06:16:06.830Z,12.67
2019-03-28T06:18:35.300Z,12.93
2019-03-28T06:21:03.745Z,11.93
2019-03-28T06:23:35.075Z,12.90
2019-03-28T06:26:03.603Z,12.30
2019-03-28T06:28:32.046Z,12.70
2019-03-28T06:31:00.483Z,12.50
2019-03-28T06:33:28.924Z,12.13
2019-03-28T06:35:57.367Z,11.60
2019-03-28T06:38:25.827Z,11.97
2019-03-28T06:40:54.335Z,11.97
2019-03-28T06:43:22.791Z,12.87
2019-03-28T06:45:51.215Z,12.50
2019-03-28T06:48:19.655Z,13.10
2019-03-28T06:50:48.084Z,11.87
2019-03-28T06:53:16.582Z,12.60
2019-03-28T06:55:45.040Z,13.00
2019-03-28T06:58:13.514Z,11.30
2019-03-28T07:00:42.151Z,11.07
2019-03-28T07:03:10.649Z,11.33
2019-03-28T07:05:39.099Z,10.83
2019-03-28T07:08:07.570Z,10.07
2019-03-28T07:10:36.521Z,11.40
2019-03-28T07:13:05.124Z,11.23
2019-03-28T07:15:36.517Z,11.17
2019-03-28T07:18:03.787Z,11.40
2019-03-28T07:20:32.213Z,11.73
2019-03-28T07:23:00.642Z,12.00
2019-03-28T07:25:29.087Z,11.33
2019-03-28T07:27:59.435Z,12.00
2019-03-28T07:30:27.935Z,12.20
2019-03-28T07:32:56.392Z,10.77
2019-03-28T07:35:24.831Z,12.10
2019-03-28T07:37:53.266Z,11.83
2019-03-28T07:40:22.400Z,12.67
2019-03-28T07:42:50.885Z,11.87
2019-03-28T07:45:19.333Z,12.07
2019-03-28T07:47:47.756Z,11.80
2019-03-28T07:50:16.437Z,11.87
2019-03-28T07:53:04.247Z,12.47
2019-03-28T07:55:32.680Z,11.40
2019-03-28T07:58:01.093Z,11.43
2019-03-28T08:00:29.522Z,11.93
2019-03-28T08:02:58.524Z,11.23
2019-03-28T08:05:27.103Z,10.43
2019-03-28T08:07:55.550Z,11.03
2019-03-28T08:10:24.008Z,10.87
2019-03-28T08:12:52.455Z,12.50
2019-03-28T08:15:20.898Z,12.63
2019-03-28T08:17:49.393Z,11.00
2019-03-28T08:20:18.087Z,11.07
2019-03-28T08:22:46.552Z,11.27
2019-03-28T08:25:15.009Z,10.37
2019-03-28T08:27:43.534Z,12.63
2019-03-28T08:30:18.859Z,12.10
2019-03-28T08:32:42.964Z,11.30
2019-03-28T08:35:11.743Z,11.60
2019-03-28T08:37:40.733Z,11.33
2019-03-28T08:40:10.201Z,10.67
2019-03-28T08:42:38.684Z,11.67
2019-03-28T08:45:08.448Z,11.33
2019-03-28T08:47:36.901Z,10.50
2019-03-28T08:50:08.389Z,11.93
2019-03-28T08:52:36.881Z,10.67
2019-03-28T08:55:09.968Z,10.50
2019-03-28T08:57:37.543Z,10.97
2019-03-28T09:00:10.530Z,10.07
2019-03-28T09:02:38.961Z,10.30
2019-03-28T09:05:07.730Z,10.53
2019-03-28T09:07:36.242Z,10.67
2019-03-28T09:10:06.969Z,9.70
2019-03-28T09:12:35.823Z,11.37
2019-03-28T09:15:07.872Z,10.13
2019-03-28T09:17:36.335Z,10.27
2019-03-28T09:20:08.115Z,9.50
2019-03-28T09:22:38.939Z,9.60
2019-03-28T09:25:07.514Z,10.73
2019-03-28T09:27:36.009Z,10.53
2019-03-28T09:30:07.025Z,9.43
2019-03-28T09:32:36.214Z,9.80
2019-03-28T09:35:06.082Z,9.57
2019-03-28T09:37:34.557Z,10.27
2019-03-28T09:40:03.245Z,9.63
2019-03-28T09:42:31.672Z,8.80
2019-03-28T09:45:00.204Z,8.40
2019-03-28T09:47:28.935Z,9.13
2019-03-28T09:49:57.358Z,8.50
2019-03-28T09:52:25.794Z,7.80
2019-03-28T09:54:54.226Z,8.73
2019-03-28T09:57:22.732Z,7.77
2019-03-28T09:59:51.314Z,6.80
2019-03-28T10:02:19.799Z,6.77
2019-03-28T10:04:48.222Z,6.97
2019-03-28T10:07:16.667Z,6.90
2019-03-28T10:09:45.136Z,6.97
2019-03-28T10:12:13.882Z,7.87
2019-03-28T10:14:42.317Z,7.50
2019-03-28T10:17:11.042Z,6.60
2019-03-28T10:19:39.474Z,6.23
2019-03-28T10:22:07.923Z,6.00
2019-03-28T10:24:36.335Z,6.50
2019-03-28T10:27:04.788Z,6.20
2019-03-28T10:29:33.202Z,5.70
2019-03-28T10:32:01.640Z,5.73
2019-03-28T10:34:30.585Z,6.40
2019-03-28T10:36:59.003Z,6.30
2019-03-28T10:39:27.476Z,6.77
2019-03-28T10:41:55.954Z,7.23
2019-03-28T10:44:24.499Z,7.13
2019-03-28T10:46:53.022Z,6.67
2019-03-28T10:49:21.610Z,6.57
2019-03-28T10:51:50.266Z,6.90
2019-03-28T10:54:27.567Z,7.07
2019-03-28T10:56:58.028Z,6.83
2019-03-28T10:59:26.321Z,6.53
2019-03-28T11:01:54.940Z,6.93
2019-03-28T11:04:23.497Z,6.87
2019-03-28T11:06:51.968Z,7.33
2019-03-28T11:09:20.465Z,7.57
2019-03-28T11:11:49.076Z,6.80
2019-03-28T11:14:17.659Z,6.60
2019-03-28T11:16:48.247Z,6.30
2019-03-28T11:19:17.515Z,5.70
2019-03-28T11:21:46.214Z,5.47
2019-03-28T11:24:14.749Z,5.57
2019-03-28T11:26:43.293Z,6.67
2019-03-28T11:29:11.928Z,5.27
2019-03-28T11:31:46.705Z,5.97
2019-03-28T11:34:10.667Z,5.97
2019-03-28T11:36:41.062Z,6.60
2019-03-28T11:39:09.578Z,5.20
2019-03-28T11:41:38.055Z,5.17
2019-03-28T11:44:06.633Z,5.50
2019-03-28T11:46:35.087Z,5.13
2019-03-28T11:49:03.567Z,5.50
2019-03-28T11:51:32.104Z,4.93
2019-03-28T11:54:00.665Z,5.03
2019-03-28T11:56:29.210Z,5.10
2019-03-28T11:58:57.697Z,4.57
2019-03-28T12:01:26.282Z,4.00
2019-03-28T12:03:54.746Z,4.80
2019-03-28T12:06:23.278Z,4.33
2019-03-28T12:08:51.766Z,5.33
2019-03-28T12:11:20.237Z,5.50
2019-03-28T12:13:48.704Z,5.33
2019-03-28T12:16:17.338Z,5.17
2019-03-28T12:18:45.840Z,4.93
2019-03-28T12:21:14.369Z,4.97
2019-03-28T12:23:42.926Z,5.00
2019-03-28T12:26:11.481Z,5.08
2019-03-28T12:28:40.030Z,4.55
2019-03-28T12:31:08.492Z,4.33
2019-03-28T12:33:37.061Z,4.70
2019-03-28T12:36:05.596Z,4.30
2019-03-28T12:38:34.171Z,4.70
2019-03-28T12:41:02.709Z,4.17
2019-03-28T12:43:31.250Z,4.63
2019-03-28T12:45:59.803Z,5.22
2019-03-28T12:48:28.273Z,4.60
2019-03-28T12:50:59.139Z,4.33
2019-03-28T12:53:26.940Z,4.92
2019-03-28T12:55:55.472Z,5.33
2019-03-28T12:58:23.955Z,5.15
2019-03-28T13:00:52.425Z,5.27
2019-03-28T13:03:20.911Z,4.55
2019-03-28T13:05:49.503Z,4.55
2019-03-28T13:08:18.061Z,5.17
2019-03-28T13:10:46.604Z,5.80
2019-03-28T13:13:15.076Z,5.33
2019-03-28T13:15:43.589Z,4.70
2019-03-28T13:18:12.177Z,5.20
2019-03-28T13:20:40.814Z,5.70
2019-03-28T13:23:09.302Z,5.12
2019-03-28T13:25:37.828Z,5.20
2019-03-28T13:28:06.375Z,5.58
2019-03-28T13:30:34.900Z,5.30
2019-03-28T13:33:03.526Z,5.80
2019-03-28T13:35:34.938Z,5.55
2019-03-28T13:38:02.201Z,6.00
2019-03-28T13:40:30.667Z,5.78
2019-03-28T13:42:59.126Z,5.70
2019-03-28T13:45:27.681Z,5.17
2019-03-28T13:47:56.217Z,5.97
2019-03-28T13:50:25.014Z,5.20
2019-03-28T13:52:53.471Z,4.97
2019-03-28T13:55:21.944Z,5.62
2019-03-28T13:57:52.184Z,5.40
2019-03-28T14:00:32.666Z,4.72
2019-03-28T14:03:01.135Z,4.30
2019-03-28T14:05:29.972Z,4.17
2019-03-28T14:07:58.427Z,3.50
2019-03-28T14:10:27.042Z,3.87
2019-03-28T14:12:55.588Z,3.60
2019-03-28T14:15:26.162Z,3.87
2019-03-28T14:17:54.698Z,3.02
2019-03-28T14:20:23.255Z,2.62
2019-03-28T14:22:52.526Z,2.77
2019-03-28T14:25:21.180Z,2.90
2019-03-28T14:27:49.728Z,2.92
2019-03-28T14:30:19.022Z,2.83
2019-03-28T14:32:53.083Z,2.62
2019-03-28T14:35:17.692Z,2.72
2019-03-28T14:37:46.251Z,3.02
2019-03-28T14:40:15.885Z,2.17
2019-03-28T14:42:44.484Z,1.92
2019-03-28T14:45:13.031Z,2.40
2019-03-28T14:47:42.147Z,2.22
2019-03-28T14:50:11.209Z,2.37
2019-03-28T14:52:39.705Z,2.12
2019-03-28T14:55:08.252Z,2.40
2019-03-28T14:57:36.789Z,1.98
2019-03-28T15:00:17.157Z,2.37
2019-03-28T15:02:45.684Z,2.33
2019-03-28T15:05:14.228Z,2.77
2019-03-28T15:07:42.690Z,4.03
2019-03-28T15:10:11.305Z,3.65
2019-03-28T15:12:39.858Z,3.15
2019-03-28T15:15:09.134Z,3.75
2019-03-28T15:17:37.596Z,3.15
2019-03-28T15:20:07.409Z,2.85
2019-03-28T15:22:35.950Z,3.15
2019-03-28T15:25:06.071Z,3.00
2019-03-28T15:27:34.612Z,3.22
2019-03-28T15:30:04.341Z,3.40
2019-03-28T15:32:32.961Z,2.62
2019-03-28T15:35:01.447Z,3.27
2019-03-28T15:37:31.563Z,3.77
2019-03-28T15:40:00.028Z,3.12
2019-03-28T15:42:28.564Z,3.40
2019-03-28T15:44:57.184Z,3.20
2019-03-28T15:47:25.662Z,3.27
2019-03-28T15:49:54.155Z,3.20
2019-03-28T15:52:22.745Z,2.45
2019-03-28T15:54:51.304Z,2.00
2019-03-28T15:57:19.848Z,2.70
2019-03-28T15:59:48.347Z,2.30
2019-03-28T16:02:16.827Z,2.70
2019-03-28T16:04:45.289Z,2.83
2019-03-28T16:07:13.784Z,9.33
2019-03-28T16:09:42.266Z,5.83
2019-03-28T16:12:10.797Z,3.58
2019-03-28T16:14:39.347Z,2.75
2019-03-28T16:17:08.449Z,3.00
2019-03-28T16:19:36.928Z,2.70
2019-03-28T16:22:05.790Z,3.27
2019-03-28T16:24:34.278Z,3.10
2019-03-28T16:27:02.747Z,2.50
2019-03-28T16:29:31.208Z,2.42
2019-03-28T16:31:59.677Z,2.58
2019-03-28T16:34:28.163Z,2.58
2019-03-28T16:36:56.781Z,3.02
2019-03-28T16:39:25.267Z,2.42
2019-03-28T16:41:53.796Z,2.60
2019-03-28T16:44:22.254Z,3.15
2019-03-28T16:46:50.733Z,3.30
2019-03-28T16:49:19.309Z,2.87
2019-03-28T16:51:47.769Z,3.42
2019-03-28T16:54:16.234Z,3.42
2019-03-28T16:56:44.706Z,2.75
2019-03-28T16:59:13.163Z,2.90
2019-03-28T17:01:41.718Z,3.08
2019-03-28T17:04:20.031Z,2.80
2019-03-28T17:06:40.659Z,3.20
2019-03-28T17:09:09.698Z,2.80
2019-03-28T17:11:38.332Z,1.90
2019-03-28T17:14:06.872Z,2.75
2019-03-28T17:16:35.429Z,2.08
2019-03-28T17:19:03.898Z,2.37
2019-03-28T17:21:32.433Z,2.10
2019-03-28T17:24:00.907Z,1.92
2019-03-28T17:26:29.655Z,2.40
2019-03-28T17:28:58.274Z,2.27
2019-03-28T17:31:26.825Z,2.50
2019-03-28T17:33:55.367Z,2.50
2019-03-28T17:36:26.724Z,2.52
2019-03-28T17:38:54.015Z,2.65
2019-03-28T17:41:22.495Z,2.40
2019-03-28T17:43:51.029Z,2.30
2019-03-28T17:46:19.494Z,2.05
2019-03-28T17:48:47.967Z,2.10
2019-03-28T17:51:16.516Z,2.22
2019-03-28T17:53:45.694Z,2.35
2019-03-28T17:56:14.367Z,2.12
2019-03-28T17:58:42.834Z,2.25
2019-03-28T18:01:11.477Z,2.40
2019-03-28T18:03:39.958Z,2.10
2019-03-28T18:06:08.824Z,1.90
2019-03-28T18:08:37.615Z,2.33
2019-03-28T18:11:06.088Z,2.20
2019-03-28T18:13:34.650Z,2.40
2019-03-28T18:16:03.182Z,2.10
2019-03-28T18:18:31.686Z,2.20
2019-03-28T18:21:00.155Z,2.70
2019-03-28T18:23:28.667Z,2.80
2019-03-28T18:25:57.118Z,2.60
2019-03-28T18:28:25.646Z,2.77
2019-03-28T18:30:54.500Z,2.30
2019-03-28T18:33:23.036Z,2.73
2019-03-28T18:35:51.557Z,2.27
2019-03-28T18:38:20.111Z,2.70
2019-03-28T18:40:48.570Z,2.70
2019-03-28T18:43:17.335Z,2.83
2019-03-28T18:45:45.866Z,2.73
2019-03-28T18:48:27.354Z,2.80
2019-03-28T18:50:44.595Z,2.50
2019-03-28T18:53:13.051Z,2.40
2019-03-28T18:55:41.537Z,2.20
2019-03-28T18:58:10.028Z,2.47
2019-03-28T19:00:38.561Z,2.90
2019-03-28T19:03:07.233Z,2.70
2019-03-28T19:05:35.729Z,2.23
2019-03-28T19:08:04.215Z,2.30
2019-03-28T19:10:32.760Z,2.70
2019-03-28T19:13:04.537Z,2.90
2019-03-28T19:15:31.491Z,2.60
2019-03-28T19:18:00.126Z,2.77
2019-03-28T19:20:28.599Z,3.07
2019-03-28T19:22:57.079Z,2.53
2019-03-28T19:25:25.545Z,2.60
2019-03-28T19:27:54.097Z,2.87
2019-03-28T19:30:33.943Z,3.23
2019-03-28T19:33:02.557Z,3.20
2019-03-28T19:35:33.202Z,4.10
2019-03-28T19:38:03.116Z,4.03
2019-03-28T19:40:32.272Z,3.90
2019-03-28T19:43:01.405Z,6.20
2019-03-28T19:45:36.162Z,5.00
2019-03-28T19:48:06.158Z,5.90
2019-03-28T19:50:34.644Z,3.80
2019-03-28T19:53:03.197Z,4.00
2019-03-28T19:55:31.725Z,2.90
2019-03-28T19:58:00.182Z,2.70
2019-03-28T20:00:28.800Z,2.63
2019-03-28T20:03:00.288Z,2.30
2019-03-28T20:05:27.618Z,2.60
2019-03-28T20:07:56.069Z,2.70
2019-03-28T20:10:24.550Z,2.70
2019-03-28T20:12:53.022Z,2.67
2019-03-28T20:15:21.491Z,2.80
2019-03-28T20:17:50.018Z,3.23
2019-03-28T20:20:18.610Z,3.40
2019-03-28T20:22:47.150Z,3.30
2019-03-28T20:25:15.697Z,2.70
2019-03-28T20:27:44.160Z,2.70
2019-03-28T20:30:12.946Z,2.60
2019-03-28T20:32:41.473Z,2.60
2019-03-28T20:35:10.805Z,2.87
2019-03-28T20:37:39.598Z,2.80
2019-03-28T20:40:08.625Z,2.80
2019-03-28T20:42:37.999Z,2.73
2019-03-28T20:45:08.384Z,2.63
2019-03-28T20:47:36.993Z,2.83
2019-03-28T20:50:08.752Z,3.37
2019-03-28T20:52:37.290Z,3.27
2019-03-28T20:55:07.297Z,3.20
2019-03-28T20:57:36.007Z,3.17
2019-03-28T21:00:08.680Z,2.90
2019-03-28T21:02:37.551Z,3.33
2019-03-28T21:05:10.519Z,2.60
2019-03-28T21:07:39.154Z,3.20
2019-03-28T21:10:09.689Z,3.43
2019-03-28T21:12:38.148Z,3.27
2019-03-28T21:15:09.500Z,3.40
2019-03-28T21:17:37.976Z,3.60
2019-03-28T21:20:07.393Z,3.43
2019-03-28T21:22:35.857Z,3.63
2019-03-28T21:25:06.340Z,3.27
2019-03-28T21:27:34.809Z,3.33
2019-03-28T21:30:03.554Z,3.57
2019-03-28T21:32:32.021Z,3.60
2019-03-28T21:35:00.573Z,4.03
2019-03-28T21:37:28.992Z,3.97
2019-03-28T21:39:57.452Z,3.23
2019-03-28T21:42:25.877Z,3.37
2019-03-28T21:44:54.344Z,3.27
2019-03-28T21:47:25.550Z,3.50
2019-03-28T21:49:54.014Z,3.33
2019-03-28T21:52:22.438Z,3.30
2019-03-28T21:54:51.002Z,3.33
2019-03-28T21:57:19.390Z,3.50
2019-03-28T21:59:48.816Z,3.70
2019-03-28T22:02:17.447Z,3.90
2019-03-28T22:04:45.887Z,3.50
2019-03-28T22:07:14.979Z,3.80
2019-03-28T22:09:43.635Z,3.20
2019-03-28T22:12:12.067Z,3.67
2019-03-28T22:14:40.495Z,3.83
2019-03-28T22:17:08.916Z,3.77
2019-03-28T22:19:37.368Z,3.60
2019-03-28T22:22:05.829Z,3.60
2019-03-28T22:24:34.298Z,4.03
2019-03-28T22:27:02.735Z,4.00
2019-03-28T22:29:31.179Z,3.93
2019-03-28T22:31:59.624Z,3.87
2019-03-28T22:34:28.046Z,4.00
2019-03-28T22:36:59.304Z,4.67
2019-03-28T22:39:26.645Z,3.77
2019-03-28T22:41:55.149Z,4.60
2019-03-28T22:44:24.245Z,4.60
2019-03-28T22:46:53.399Z,4.40
2019-03-28T22:49:21.827Z,4.83
2019-03-28T22:51:50.277Z,7.53
2019-03-28T22:54:18.697Z,5.27
2019-03-28T22:56:47.147Z,4.60
2019-03-28T22:59:15.574Z,4.97
2019-03-28T23:01:44.008Z,4.63
2019-03-28T23:04:12.971Z,4.77
2019-03-28T23:06:41.755Z,4.50
2019-03-28T23:09:10.202Z,3.93
2019-03-28T23:11:40.506Z,5.27
2019-03-28T23:14:08.789Z,4.47
2019-03-28T23:16:37.592Z,4.70
2019-03-28T23:19:06.298Z,4.63
2019-03-28T23:21:34.764Z,4.80
2019-03-28T23:24:03.862Z,4.60
2019-03-28T23:26:32.294Z,4.83
2019-03-28T23:29:00.729Z,5.47
2019-03-28T23:31:29.166Z,4.93
2019-03-28T23:33:57.589Z,5.50
2019-03-28T23:36:26.725Z,5.37
2019-03-28T23:38:55.143Z,5.57
2019-03-28T23:41:23.590Z,5.30
2019-03-28T23:43:52.016Z,5.40
2019-03-28T23:46:20.446Z,5.00
2019-03-28T23:48:48.859Z,4.73
2019-03-28T23:51:17.283Z,5.87
2019-03-28T23:53:45.713Z,5.40
2019-03-28T23:56:14.171Z,5.40
2019-03-28T23:58:42.617Z,6.07
